Time;durP1;ratioP1;P1;durP2;ratioP2;P2;SDS_P1;SDS_P2;PMS_P1;PMS_P2;Temp;Humidity;BMP_temperature;BMP_pressure;BME280_temperature;BME280_humidity;BME280_pressure;Samples;Min_cycle;Max_cycle;Signal;HPM_P1;HPM_P2
2022/01/26 00:07:30;;;;;;;35.20;10.45;;;;;;;;;;4945977;28;1102273;-74
2022/01/26 00:09:55;;;;;;;33.55;10.95;;;;;;;;;;4989281;28;20293;-74
2022/01/26 00:12:20;;;;;;;36.85;10.02;;;;;;;;;;4990098;28;20042;-74
2022/01/26 00:14:45;;;;;;;31.33;10.55;;;;;;;;;;4988741;28;20415;-73
2022/01/26 00:17:12;;;;;;;35.28;11.68;;;;;;;;;;5004747;28;20034;-74
2022/01/26 00:20:08;;;;;;;33.95;11.32;;;;;;;;;;5002799;28;20115;-73
2022/01/26 00:22:58;;;;;;;29.05;10.32;;;;;;;;;;5001849;28;20022;-73
2022/01/26 00:27:53;;;;;;;36.45;10.52;;;;;;;;;;5008471;28;20038;-74
2022/01/26 00:38:33;;;;;;;38.05;10.90;;;;;;;;;;5001193;28;20061;-73
2022/01/26 00:38:39;;;;;;;31.30;10.50;;;;;;;;;;5008079;28;20122;-74
2022/01/26 00:41:11;;;;;;;34.13;11.10;;;;;;;;;;4972821;28;20038;-73
2022/01/26 00:43:44;;;;;;;36.38;10.73;;;;;;;;;;4989208;28;20026;-74
2022/01/26 00:46:09;;;;;;;;;;;;;;;;;;5004343;28;20046;-73
2022/01/26 00:48:37;;;;;;;28.48;10.77;;;;;;;;;;4986322;28;19913;-73
2022/01/26 00:51:05;;;;;;;33.47;10.57;;;;;;;;;;5007359;28;20103;-74
2022/01/26 00:53:41;;;;;;;37.38;11.95;;;;;;;;;;4990389;28;20524;-73
2022/01/26 00:56:07;;;;;;;46.10;13.65;;;;;;;;;;5001573;28;20037;-73
2022/01/26 00:58:33;;;;;;;36.70;11.57;;;;;;;;;;5003639;28;20648;-73
2022/01/26 01:01:01;;;;;;;42.03;12.80;;;;;;;;;;5004855;28;20033;-74
2022/01/26 01:03:27;;;;;;;42.85;12.40;;;;;;;;;;5003000;28;20077;-73
2022/01/26 01:08:21;;;;;;;41.42;12.02;;;;;;;;;;5008213;28;20084;-74
2022/01/26 01:10:49;;;;;;;47.28;12.70;;;;;;;;;;5016263;28;20045;-74
2022/01/26 01:13:18;;;;;;;45.10;12.85;;;;;;;;;;4992042;28;20524;-74
2022/01/26 01:15:44;;;;;;;40.25;11.85;;;;;;;;;;4983096;28;20042;-72
2022/01/26 01:18:21;;;;;;;48.95;13.52;;;;;;;;;;5003725;28;20156;-73
2022/01/26 01:21:22;;;;;;;48.25;13.57;;;;;;;;;;5005651;28;20042;-74
2022/01/26 01:26:43;;;;;;;39.83;11.68;;;;;;;;;;5005332;28;20045;-73
2022/01/26 01:29:22;;;;;;;47.20;12.35;;;;;;;;;;5000586;28;20026;-73
2022/01/26 01:31:52;;;;;;;40.53;12.85;;;;;;;;;;5003170;28;20038;-73
2022/01/26 01:34:20;;;;;;;40.78;11.85;;;;;;;;;;5002316;28;20060;-73
2022/01/26 01:36:50;;;;;;;43.10;12.90;;;;;;;;;;5002157;28;20038;-74
2022/01/26 01:39:17;;;;;;;42.97;12.57;;;;;;;;;;5005870;28;20042;-74
2022/01/26 01:41:45;;;;;;;43.67;13.57;;;;;;;;;;4989395;28;20097;-74
2022/01/26 01:44:11;;;;;;;37.33;11.40;;;;;;;;;;5006954;28;20040;-73
2022/01/26 01:46:38;;;;;;;37.40;11.85;;;;;;;;;;5007209;28;20030;-74
2022/01/26 01:49:05;;;;;;;49.03;13.65;;;;;;;;;;5005664;28;20063;-73
2022/01/26 01:51:37;;;;;;;27.35;10.00;;;;;;;;;;4991789;28;20046;-73
2022/01/26 01:54:05;;;;;;;29.33;10.32;;;;;;;;;;4983082;28;20072;-73
2022/01/26 01:56:30;;;;;;;38.70;11.68;;;;;;;;;;4983818;28;20149;-73
2022/01/26 01:58:58;;;;;;;32.42;10.27;;;;;;;;;;4979917;28;20109;-73
2022/01/26 02:01:24;;;;;;;41.55;12.57;;;;;;;;;;5000042;28;20049;-73
2022/01/26 02:03:50;;;;;;;39.33;11.00;;;;;;;;;;4981548;28;20147;-74
2022/01/26 02:06:15;;;;;;;35.70;12.48;;;;;;;;;;4982826;28;20504;-74
2022/01/26 02:08:41;;;;;;;32.15;11.55;;;;;;;;;;4990056;28;20053;-74
2022/01/26 02:11:09;;;;;;;42.72;12.32;;;;;;;;;;4987714;28;20046;-73
2022/01/26 02:13:44;;;;;;;48.15;11.82;;;;;;;;;;4985850;28;20417;-74
2022/01/26 02:52:01;;;;;;;51.75;14.05;;;;;;;;;;4962051;28;20050;-73
2022/01/26 03:04:50;;;;;;;46.30;15.20;;;;;;;;;;5002447;28;20029;-73
2022/01/26 03:09:56;;;;;;;57.85;14.65;;;;;;;;;;5005937;28;20515;-73
2022/01/26 03:12:33;;;;;;;58.28;15.23;;;;;;;;;;5004788;28;20081;-74
2022/01/26 03:15:08;;;;;;;56.10;15.65;;;;;;;;;;5005474;28;20034;-74
2022/01/26 03:18:27;;;;;;;49.58;16.20;;;;;;;;;;4987721;28;20140;-74
2022/01/26 03:20:39;;;;;;;55.72;14.70;;;;;;;;;;4997885;28;20045;-73
2022/01/26 03:29:12;;;;;;;60.17;16.70;;;;;;;;;;5005110;28;20060;-74
2022/01/26 03:34:11;;;;;;;61.38;16.42;;;;;;;;;;4983204;28;20202;-73
2022/01/26 03:36:47;;;;;;;52.85;16.17;;;;;;;;;;4984047;28;20042;-74
2022/01/26 03:39:15;;;;;;;59.75;15.90;;;;;;;;;;4979791;28;20048;-74
2022/01/26 03:44:13;;;;;;;53.75;15.85;;;;;;;;;;4981515;28;20546;-73
2022/01/26 03:46:39;;;;;;;60.42;15.77;;;;;;;;;;4980610;28;20050;-73
2022/01/26 03:49:06;;;;;;;54.25;15.27;;;;;;;;;;4979862;28;20084;-73
2022/01/26 03:51:33;;;;;;;55.78;16.38;;;;;;;;;;4980775;28;20085;-74
2022/01/26 03:53:58;;;;;;;55.97;16.80;;;;;;;;;;4983933;28;20038;-74
2022/01/26 03:56:24;;;;;;;60.65;16.15;;;;;;;;;;4989883;28;22274;-73
2022/01/26 03:58:49;;;;;;;66.93;19.83;;;;;;;;;;4964310;28;20034;-72
2022/01/26 04:01:14;;;;;;;63.08;17.00;;;;;;;;;;4993515;28;20035;-73
2022/01/26 04:03:40;;;;;;;64.93;17.83;;;;;;;;;;4977804;28;20455;-74
2022/01/26 04:06:05;;;;;;;65.53;19.58;;;;;;;;;;4966249;28;20054;-73
2022/01/26 04:08:33;;;;;;;62.28;17.30;;;;;;;;;;4979067;28;20121;-73
2022/01/26 04:13:42;;;;;;;51.78;16.58;;;;;;;;;;5002170;28;20045;-74
2022/01/26 04:16:08;;;;;;;61.13;17.52;;;;;;;;;;4985206;28;20050;-74
2022/01/26 04:18:37;;;;;;;66.05;18.38;;;;;;;;;;4984209;28;20035;-74
2022/01/26 04:26:23;;;;;;;67.88;18.02;;;;;;;;;;5004719;28;20033;-74
2022/01/26 04:28:54;;;;;;;66.20;16.58;;;;;;;;;;5004841;28;20046;-73
2022/01/26 04:31:21;;;;;;;72.78;18.60;;;;;;;;;;4979337;28;20042;-74
2022/01/26 04:33:47;;;;;;;63.03;18.63;;;;;;;;;;4971066;28;20050;-73
2022/01/26 04:36:17;;;;;;;63.50;18.92;;;;;;;;;;4965076;28;20065;-73
2022/01/26 04:38:50;;;;;;;67.05;17.83;;;;;;;;;;4979192;28;20039;-74
2022/01/26 04:43:51;;;;;;;70.45;18.00;;;;;;;;;;4985617;28;20030;-74
2022/01/26 04:46:16;;;;;;;69.60;19.15;;;;;;;;;;4985825;28;20062;-74
2022/01/26 04:48:42;;;;;;;72.25;18.95;;;;;;;;;;4984237;28;20513;-74
2022/01/26 04:51:07;;;;;;;54.38;16.15;;;;;;;;;;4981927;28;20149;-73
2022/01/26 04:53:32;;;;;;;69.55;18.95;;;;;;;;;;4980358;28;20161;-73
2022/01/26 04:55:58;;;;;;;62.55;18.00;;;;;;;;;;4986658;28;20030;-73
2022/01/26 04:58:23;;;;;;;75.53;19.02;;;;;;;;;;4984174;28;20034;-74
2022/01/26 05:00:48;;;;;;;69.43;20.15;;;;;;;;;;4984182;28;20101;-73
2022/01/26 05:03:14;;;;;;;62.97;18.40;;;;;;;;;;4979708;28;20038;-73
2022/01/26 05:05:40;;;;;;;71.65;20.17;;;;;;;;;;5001473;28;20765;-71
2022/01/26 05:08:05;;;;;;;77.75;20.55;;;;;;;;;;5003632;28;20042;-70
2022/01/26 05:10:31;;;;;;;73.00;19.52;;;;;;;;;;4989540;28;20037;-73
2022/01/26 05:12:56;;;;;;;81.90;20.13;;;;;;;;;;5005261;28;20595;-73
2022/01/26 05:15:25;;;;;;;90.93;23.08;;;;;;;;;;5008074;28;20057;-74
2022/01/26 05:17:50;;;;;;;85.85;22.25;;;;;;;;;;4987350;28;20042;-74
2022/01/26 05:20:16;;;;;;;90.47;23.08;;;;;;;;;;4980394;28;20069;-74
2022/01/26 05:22:43;;;;;;;75.55;21.85;;;;;;;;;;5003930;28;20430;-73
2022/01/26 05:25:10;;;;;;;78.28;20.60;;;;;;;;;;5004608;28;20046;-73
2022/01/26 05:27:35;;;;;;;80.50;21.42;;;;;;;;;;4989886;28;20046;-73
2022/01/26 05:30:00;;;;;;;80.25;20.17;;;;;;;;;;4970286;28;20092;-74
2022/01/26 05:32:26;;;;;;;82.53;20.48;;;;;;;;;;4982871;28;20792;-73
2022/01/26 05:34:51;;;;;;;73.25;21.55;;;;;;;;;;4980422;28;20030;-73
2022/01/26 05:37:17;;;;;;;72.03;20.67;;;;;;;;;;4994574;28;20039;-74
2022/01/26 05:39:42;;;;;;;72.05;20.35;;;;;;;;;;4987116;28;20081;-74
2022/01/26 05:42:08;;;;;;;83.80;20.20;;;;;;;;;;4985416;28;20432;-73
2022/01/26 05:44:34;;;;;;;72.90;20.88;;;;;;;;;;4998434;28;20042;-74
2022/01/26 05:47:00;;;;;;;68.43;19.98;;;;;;;;;;4987622;28;20030;-74
2022/01/26 05:49:26;;;;;;;83.85;21.58;;;;;;;;;;4988310;28;20046;-73
2022/01/26 05:51:52;;;;;;;72.05;19.42;;;;;;;;;;4986883;28;20050;-73
2022/01/26 05:54:17;;;;;;;75.75;20.30;;;;;;;;;;4998873;28;20033;-73
2022/01/26 05:56:47;;;;;;;78.82;19.95;;;;;;;;;;4982705;28;20440;-73
2022/01/26 05:59:19;;;;;;;62.25;20.23;;;;;;;;;;4983278;28;20531;-74
2022/01/26 06:01:45;;;;;;;70.32;21.17;;;;;;;;;;4985537;28;20500;-73
2022/01/26 06:04:10;;;;;;;67.10;20.15;;;;;;;;;;4983287;28;20046;-74
2022/01/26 06:06:35;;;;;;;64.47;19.73;;;;;;;;;;4983693;28;20152;-73
2022/01/26 06:09:01;;;;;;;73.00;19.13;;;;;;;;;;4983738;28;20591;-73
2022/01/26 06:11:26;;;;;;;66.68;19.90;;;;;;;;;;4983364;28;20487;-73
2022/01/26 06:13:51;;;;;;;65.13;19.58;;;;;;;;;;4987343;28;20125;-74
2022/01/26 06:16:17;;;;;;;78.22;22.23;;;;;;;;;;4987799;28;20578;-74
2022/01/26 06:18:43;;;;;;;67.88;19.08;;;;;;;;;;4998979;28;20560;-74
2022/01/26 06:21:09;;;;;;;74.00;19.45;;;;;;;;;;4988072;28;20748;-74
2022/01/26 06:23:35;;;;;;;60.72;18.20;;;;;;;;;;4987498;28;20576;-74
2022/01/26 06:26:00;;;;;;;73.63;20.40;;;;;;;;;;4985390;28;20045;-73
2022/01/26 06:28:27;;;;;;;75.85;21.55;;;;;;;;;;4982357;28;20424;-74
2022/01/26 06:31:10;;;;;;;75.45;20.83;;;;;;;;;;4983986;28;20061;-72
2022/01/26 06:33:36;;;;;;;71.15;20.52;;;;;;;;;;4985099;28;20065;-74
2022/01/26 06:36:03;;;;;;;72.10;20.25;;;;;;;;;;4986719;28;20069;-74
2022/01/26 06:38:28;;;;;;;67.57;19.77;;;;;;;;;;4985657;28;20551;-74
2022/01/26 06:40:55;;;;;;;75.35;21.70;;;;;;;;;;4982023;28;20026;-73
2022/01/26 06:43:23;;;;;;;73.38;21.05;;;;;;;;;;4984419;28;20070;-73
2022/01/26 06:45:53;;;;;;;60.72;18.23;;;;;;;;;;4996465;28;20524;-73
2022/01/26 06:50:57;;;;;;;63.92;19.30;;;;;;;;;;4985801;28;20535;-73
2022/01/26 06:53:22;;;;;;;69.45;18.75;;;;;;;;;;4986242;28;20125;-73
2022/01/26 06:55:48;;;;;;;72.82;20.52;;;;;;;;;;4987260;28;20042;-73
2022/01/26 06:58:13;;;;;;;67.40;19.40;;;;;;;;;;4982198;28;20050;-72
2022/01/26 07:00:39;;;;;;;71.35;21.33;;;;;;;;;;4982879;28;20068;-73
2022/01/26 07:03:04;;;;;;;71.05;21.83;;;;;;;;;;4982474;28;20128;-72
2022/01/26 07:05:29;;;;;;;76.88;21.92;;;;;;;;;;4983921;28;20050;-73
2022/01/26 07:07:55;;;;;;;77.53;21.52;;;;;;;;;;4980709;28;20037;-73
2022/01/26 07:10:20;;;;;;;71.07;18.73;;;;;;;;;;4982721;28;20120;-71
2022/01/26 07:12:45;;;;;;;80.60;22.45;;;;;;;;;;4982889;28;20524;-74
2022/01/26 07:23:22;;;;;;;;;;;;;;;;;;4983208;28;20081;-73
2022/01/26 07:25:47;;;;;;;77.53;23.35;;;;;;;;;;4981318;28;20011;-73
2022/01/26 07:28:12;;;;;;;82.50;23.80;;;;;;;;;;4982142;28;20038;-73
2022/01/26 07:30:38;;;;;;;80.55;23.75;;;;;;;;;;4982633;28;20439;-73
2022/01/26 07:33:05;;;;;;;81.28;23.50;;;;;;;;;;4981291;28;20118;-73
2022/01/26 07:35:30;;;;;;;79.53;22.25;;;;;;;;;;4979437;28;20034;-72
2022/01/26 07:38:01;;;;;;;72.25;21.52;;;;;;;;;;4982523;28;20030;-72
2022/01/26 07:40:26;;;;;;;96.57;26.60;;;;;;;;;;4988639;28;20074;-73
2022/01/26 07:42:53;;;;;;;74.93;21.08;;;;;;;;;;4980183;28;20046;-72
2022/01/26 07:45:19;;;;;;;77.22;22.45;;;;;;;;;;4982238;28;20042;-71
2022/01/26 07:47:45;;;;;;;65.38;19.88;;;;;;;;;;4980728;28;20042;-73
2022/01/26 07:50:13;;;;;;;73.10;22.02;;;;;;;;;;4983807;28;20026;-73
2022/01/26 07:52:40;;;;;;;74.38;20.65;;;;;;;;;;4985501;28;20030;-73
2022/01/26 07:55:08;;;;;;;79.78;21.27;;;;;;;;;;4997339;28;20034;-73
2022/01/26 07:57:34;;;;;;;83.85;23.70;;;;;;;;;;4997081;28;20030;-73
2022/01/26 07:59:59;;;;;;;92.05;25.02;;;;;;;;;;4987960;28;20838;-73
2022/01/26 08:02:24;;;;;;;86.47;23.58;;;;;;;;;;4999953;28;20071;-73
2022/01/26 08:04:49;;;;;;;79.15;22.35;;;;;;;;;;4985756;28;20030;-73
2022/01/26 08:07:15;;;;;;;80.05;21.85;;;;;;;;;;5003086;28;20451;-73
2022/01/26 08:09:44;;;;;;;70.68;21.08;;;;;;;;;;5005535;28;20034;-73
2022/01/26 08:12:10;;;;;;;78.47;21.05;;;;;;;;;;4996870;28;20563;-73
2022/01/26 08:14:36;;;;;;;83.72;22.77;;;;;;;;;;4985782;28;20043;-74
2022/01/26 08:17:02;;;;;;;80.30;20.73;;;;;;;;;;4985164;28;20027;-73
2022/01/26 08:19:28;;;;;;;67.57;20.40;;;;;;;;;;4982160;28;20042;-73
2022/01/26 08:21:58;;;;;;;68.70;21.33;;;;;;;;;;4986781;28;20035;-74
2022/01/26 08:24:24;;;;;;;74.03;22.85;;;;;;;;;;4984499;28;20125;-73
2022/01/26 08:26:50;;;;;;;77.88;21.42;;;;;;;;;;4985380;28;20106;-72
2022/01/26 08:29:21;;;;;;;88.47;20.70;;;;;;;;;;4985869;28;20520;-74
2022/01/26 08:31:47;;;;;;;74.53;20.60;;;;;;;;;;4988456;28;20412;-73
2022/01/26 08:34:12;;;;;;;78.13;20.92;;;;;;;;;;4981471;28;20046;-73
2022/01/26 08:36:37;;;;;;;79.40;22.27;;;;;;;;;;4989793;28;20048;-73
2022/01/26 08:39:03;;;;;;;74.07;22.15;;;;;;;;;;4988142;28;20042;-73
2022/01/26 08:41:28;;;;;;;77.68;22.45;;;;;;;;;;4988881;28;20030;-72
2022/01/26 08:43:54;;;;;;;82.07;25.42;;;;;;;;;;4990017;28;20018;-73
2022/01/26 08:46:20;;;;;;;85.35;24.55;;;;;;;;;;4987885;28;20042;-73
2022/01/26 08:48:45;;;;;;;76.60;20.98;;;;;;;;;;4995155;28;20046;-73
2022/01/26 08:51:11;;;;;;;87.22;24.23;;;;;;;;;;5006634;28;20049;-73
2022/01/26 08:53:36;;;;;;;80.68;22.23;;;;;;;;;;5002841;28;20047;-73
2022/01/26 08:56:02;;;;;;;92.63;23.02;;;;;;;;;;4989233;28;20026;-70
2022/01/26 08:58:27;;;;;;;73.70;23.08;;;;;;;;;;4996185;28;20774;-71
2022/01/26 09:00:54;;;;;;;75.93;20.70;;;;;;;;;;4991986;28;20511;-70
2022/01/26 09:03:19;;;;;;;78.03;22.92;;;;;;;;;;4980431;28;20498;-73
2022/01/26 09:05:45;;;;;;;87.90;26.15;;;;;;;;;;4968517;28;20054;-71
2022/01/26 09:08:10;;;;;;;77.95;23.80;;;;;;;;;;4974878;28;20411;-70
2022/01/26 09:10:38;;;;;;;82.68;23.98;;;;;;;;;;4989268;28;20053;-70
2022/01/26 09:13:03;;;;;;;89.57;24.10;;;;;;;;;;4984432;28;20042;-69
2022/01/26 09:15:30;;;;;;;72.40;22.50;;;;;;;;;;4999778;28;20038;-71
2022/01/26 09:17:58;;;;;;;84.93;22.45;;;;;;;;;;4992738;28;20148;-70
2022/01/26 09:20:23;;;;;;;75.13;22.67;;;;;;;;;;5005253;28;20026;-71
2022/01/26 09:22:49;;;;;;;83.75;22.67;;;;;;;;;;5002694;28;20026;-70
2022/01/26 09:25:14;;;;;;;87.15;24.42;;;;;;;;;;5003806;28;20665;-69
2022/01/26 09:27:40;;;;;;;82.90;22.23;;;;;;;;;;5003418;28;20478;-70
2022/01/26 09:30:05;;;;;;;89.78;25.58;;;;;;;;;;5006160;28;20046;-70
2022/01/26 09:32:31;;;;;;;78.47;22.27;;;;;;;;;;5004545;28;20078;-71
2022/01/26 09:34:56;;;;;;;94.70;25.35;;;;;;;;;;4979154;28;20040;-71
2022/01/26 09:37:21;;;;;;;87.03;23.63;;;;;;;;;;4987202;28;20031;-70
2022/01/26 09:39:48;;;;;;;80.50;23.95;;;;;;;;;;4987023;28;20046;-71
2022/01/26 09:42:15;;;;;;;82.25;22.10;;;;;;;;;;4983360;28;20061;-71
2022/01/26 09:44:40;;;;;;;78.05;21.38;;;;;;;;;;4984540;28;20041;-71
2022/01/26 09:47:07;;;;;;;85.25;24.50;;;;;;;;;;4983226;28;20042;-72
2022/01/26 09:49:34;;;;;;;83.45;24.13;;;;;;;;;;4991066;28;20715;-74
2022/01/26 09:52:07;;;;;;;92.13;23.10;;;;;;;;;;4992073;28;20121;-74
2022/01/26 09:54:33;;;;;;;85.05;22.60;;;;;;;;;;4994391;28;20436;-74
2022/01/26 09:57:02;;;;;;;74.00;21.45;;;;;;;;;;4982952;28;20505;-74
2022/01/26 09:59:29;;;;;;;89.70;22.23;;;;;;;;;;4988314;28;20068;-74
2022/01/26 10:01:54;;;;;;;91.10;24.98;;;;;;;;;;4985852;28;20030;-74
2022/01/26 10:04:32;;;;;;;83.78;22.40;;;;;;;;;;4987989;28;20064;-74
2022/01/26 10:18:20;;;;;;;79.47;19.52;;;;;;;;;;4980485;28;20050;-72
2022/01/26 10:20:53;;;;;;;76.05;20.80;;;;;;;;;;4985611;28;20042;-74
2022/01/26 10:23:20;;;;;;;;;;;;;;;;;;4982328;28;20062;-73
2022/01/26 10:26:02;;;;;;;70.95;20.95;;;;;;;;;;4985735;28;19997;-74
2022/01/26 10:28:59;;;;;;;68.82;20.80;;;;;;;;;;4983509;28;20069;-74
2022/01/26 10:31:30;;;;;;;71.35;18.60;;;;;;;;;;4982329;28;20046;-74
2022/01/26 10:34:12;;;;;;;71.00;20.52;;;;;;;;;;4985785;28;20050;-73
2022/01/26 10:36:40;;;;;;;84.00;21.60;;;;;;;;;;4973969;28;20054;-73
2022/01/26 10:39:07;;;;;;;75.47;20.70;;;;;;;;;;4978384;28;20785;-72
2022/01/26 10:41:33;;;;;;;73.15;19.40;;;;;;;;;;4985017;28;20046;-72
2022/01/26 10:44:01;;;;;;;67.05;20.80;;;;;;;;;;4987324;28;20065;-73
2022/01/26 10:46:30;;;;;;;70.10;19.50;;;;;;;;;;4974785;28;20050;-71
2022/01/26 10:54:27;;;;;;;72.22;20.65;;;;;;;;;;4982423;28;20483;-73
2022/01/26 10:56:53;;;;;;;62.65;17.10;;;;;;;;;;4980987;28;20100;-76
2022/01/26 10:59:19;;;;;;;82.15;23.38;;;;;;;;;;4988111;28;20205;-74
2022/01/26 11:01:44;;;;;;;77.07;21.25;;;;;;;;;;4974659;28;20085;-74
2022/01/26 11:04:10;;;;;;;81.35;21.45;;;;;;;;;;4985175;28;20108;-73
2022/01/26 11:06:37;;;;;;;66.70;18.38;;;;;;;;;;4984732;28;20065;-75
2022/01/26 11:09:10;;;;;;;85.78;22.83;;;;;;;;;;4985335;28;20038;-73
2022/01/26 11:11:35;;;;;;;80.47;21.80;;;;;;;;;;4982449;28;20891;-73
2022/01/26 11:14:12;;;;;;;87.85;22.13;;;;;;;;;;4982958;28;20026;-73
2022/01/26 11:16:47;;;;;;;83.95;22.33;;;;;;;;;;4984277;28;20050;-73
2022/01/26 11:19:14;;;;;;;79.45;22.73;;;;;;;;;;4983517;28;20050;-74
2022/01/26 11:21:40;;;;;;;83.10;21.40;;;;;;;;;;4998238;28;20052;-74
2022/01/26 11:24:11;;;;;;;64.95;19.63;;;;;;;;;;4982815;28;20081;-74
2022/01/26 11:26:41;;;;;;;84.95;23.33;;;;;;;;;;4966256;28;20042;-74
2022/01/26 11:29:15;;;;;;;69.68;19.20;;;;;;;;;;4984641;28;20045;-73
2022/01/26 11:31:41;;;;;;;81.30;20.65;;;;;;;;;;4999537;28;20027;-75
2022/01/26 11:34:10;;;;;;;81.22;22.65;;;;;;;;;;4983216;28;20070;-74
2022/01/26 11:36:35;;;;;;;68.85;20.00;;;;;;;;;;4982208;28;20113;-73
2022/01/26 11:46:59;;;;;;;89.00;23.35;;;;;;;;;;4982774;28;20065;-73
2022/01/26 11:49:32;;;;;;;89.80;22.95;;;;;;;;;;4981433;28;20070;-73
2022/01/26 11:51:58;;;;;;;77.53;22.17;;;;;;;;;;4997399;28;20500;-73
2022/01/26 11:54:49;;;;;;;81.07;23.20;;;;;;;;;;4980300;28;20057;-73
2022/01/26 11:57:17;;;;;;;78.60;19.88;;;;;;;;;;4981602;28;20054;-73
2022/01/26 11:59:51;;;;;;;68.10;20.08;;;;;;;;;;4986663;28;20040;-73
2022/01/26 12:02:41;;;;;;;66.72;19.88;;;;;;;;;;4982414;28;20054;-73
2022/01/26 12:05:10;;;;;;;74.72;18.77;;;;;;;;;;4986454;28;20042;-71
2022/01/26 12:07:53;;;;;;;70.13;18.80;;;;;;;;;;4980826;28;20830;-72
2022/01/26 12:10:29;;;;;;;83.05;19.67;;;;;;;;;;4981316;28;20049;-72
2022/01/26 12:13:01;;;;;;;67.90;19.30;;;;;;;;;;4984579;28;20053;-73
2022/01/26 12:15:30;;;;;;;85.45;22.40;;;;;;;;;;4985657;28;20047;-73
2022/01/26 12:18:12;;;;;;;85.80;20.70;;;;;;;;;;4987977;28;20053;-73
2022/01/26 12:41:10;;;;;;;91.55;23.05;;;;;;;;;;4975603;28;20034;-72
2022/01/26 12:42:23;;;;;;;75.47;20.85;;;;;;;;;;4984012;28;20026;-72
2022/01/26 12:45:01;;;;;;;63.90;18.70;;;;;;;;;;4983687;28;20117;-73
2022/01/26 12:47:28;;;;;;;63.45;22.33;;;;;;;;;;4985315;28;20096;-72
2022/01/26 12:49:56;;;;;;;62.88;20.33;;;;;;;;;;4984881;28;20030;-74
2022/01/26 12:52:22;;;;;;;67.55;20.42;;;;;;;;;;4994579;28;20470;-73
2022/01/26 12:54:47;;;;;;;57.00;17.20;;;;;;;;;;4991756;28;20053;-72
2022/01/26 12:57:13;;;;;;;64.20;17.77;;;;;;;;;;4985275;28;20046;-70
2022/01/26 12:59:39;;;;;;;70.68;21.08;;;;;;;;;;4986113;28;20048;-74
2022/01/26 13:02:04;;;;;;;63.58;19.48;;;;;;;;;;4984854;28;20018;-71
2022/01/26 13:04:29;;;;;;;67.38;21.50;;;;;;;;;;4982819;28;20046;-70
2022/01/26 13:06:55;;;;;;;64.85;20.33;;;;;;;;;;4978958;28;20798;-69
2022/01/26 13:09:27;;;;;;;76.97;21.23;;;;;;;;;;4978013;28;20070;-70
2022/01/26 13:12:03;;;;;;;70.72;21.05;;;;;;;;;;4975927;28;20061;-69
2022/01/26 13:14:36;;;;;;;64.18;20.60;;;;;;;;;;4982373;28;20038;-71
2022/01/26 13:17:18;;;;;;;;;;;;;;;;;;4983635;28;20907;-69
2022/01/26 13:22:41;;;;;;;;;;;;;;;;;;5002334;28;20391;-68
2022/01/26 13:25:33;;;;;;;49.47;16.48;;;;;;;;;;4983784;28;20044;-69
2022/01/26 13:31:10;;;;;;;56.80;17.05;;;;;;;;;;4986964;28;20042;-70
2022/01/26 13:36:31;;;;;;;58.58;17.67;;;;;;;;;;4967212;28;20058;-68
2022/01/26 13:41:52;;;;;;;58.92;17.27;;;;;;;;;;4989710;28;20408;-69
2022/01/26 13:49:52;;;;;;;49.58;16.13;;;;;;;;;;4974205;28;20042;-70
2022/01/26 14:00:36;;;;;;;53.10;17.45;;;;;;;;;;4982352;28;20057;-70
2022/01/26 14:03:04;;;;;;;47.88;15.95;;;;;;;;;;4984144;28;20073;-70
2022/01/26 14:05:30;;;;;;;52.38;15.85;;;;;;;;;;4973474;28;20084;-67
2022/01/26 14:07:56;;;;;;;50.95;16.30;;;;;;;;;;4968915;28;20027;-68
2022/01/26 14:10:22;;;;;;;55.58;16.48;;;;;;;;;;4973731;28;20041;-69
2022/01/26 14:12:48;;;;;;;49.08;16.63;;;;;;;;;;4994046;28;20047;-69
2022/01/26 14:15:20;;;;;;;50.95;17.80;;;;;;;;;;4981593;28;20512;-68
2022/01/26 14:20:40;;;;;;;54.30;17.20;;;;;;;;;;4976318;28;20509;-69
2022/01/26 14:25:53;;;;;;;60.05;18.48;;;;;;;;;;4963500;28;20521;-68
2022/01/26 14:28:22;;;;;;;54.90;18.60;;;;;;;;;;4984432;28;20057;-69
2022/01/26 14:36:20;;;;;;;59.42;17.80;;;;;;;;;;4980634;28;21807;-70
2022/01/26 15:50:54;;;;;;;52.58;16.73;;;;;;;;;;4983469;28;20053;-70
2022/01/26 15:57:20;;;;;;;49.95;15.80;;;;;;;;;;4981766;28;20042;-70
2022/01/26 16:20:43;;;;;;;48.83;16.48;;;;;;;;;;4978579;28;20052;-71
2022/01/26 17:34:34;;;;;;;47.80;14.38;;;;;;;;;;5004823;28;19923;-74
2022/01/26 18:38:45;;;;;;;50.95;17.10;;;;;;;;;;4996997;28;20104;-73
2022/01/26 18:49:33;;;;;;;47.92;15.98;;;;;;;;;;5004486;28;20038;-74
2022/01/26 18:52:00;;;;;;;48.67;16.17;;;;;;;;;;4997012;28;20061;-72
2022/01/26 18:54:33;;;;;;;51.42;16.50;;;;;;;;;;4996907;28;20109;-70
2022/01/26 18:57:01;;;;;;;44.88;14.57;;;;;;;;;;4986888;28;20061;-69
2022/01/26 18:59:27;;;;;;;44.13;15.52;;;;;;;;;;5001326;28;20482;-73
2022/01/26 19:01:55;;;;;;;51.20;15.95;;;;;;;;;;4981015;28;20099;-73
2022/01/26 19:04:30;;;;;;;47.60;16.45;;;;;;;;;;4995920;28;20188;-71
2022/01/26 19:06:56;;;;;;;50.58;17.70;;;;;;;;;;4997005;28;20136;-70
2022/01/26 19:09:25;;;;;;;47.05;16.15;;;;;;;;;;4996713;28;20091;-70
2022/01/26 19:11:52;;;;;;;47.90;16.95;;;;;;;;;;4997485;28;20082;-71
2022/01/26 19:14:19;;;;;;;50.03;16.83;;;;;;;;;;4996632;28;20052;-72
2022/01/26 19:16:50;;;;;;;48.92;17.55;;;;;;;;;;4997734;28;20052;-73
2022/01/26 19:26:37;;;;;;;53.42;16.63;;;;;;;;;;5003984;28;20135;-74
2022/01/26 19:29:26;;;;;;;58.63;18.15;;;;;;;;;;5004266;28;20092;-73
2022/01/26 19:43:34;;;;;;;49.47;16.13;;;;;;;;;;5005562;28;20172;-73
2022/01/26 19:45:58;;;;;;;43.92;15.32;;;;;;;;;;5003459;28;20135;-72
2022/01/26 19:51:08;;;;;;;46.55;16.27;;;;;;;;;;4999563;28;20053;-73
2022/01/26 19:53:33;;;;;;;47.70;17.48;;;;;;;;;;5003513;28;20038;-73
2022/01/26 19:55:59;;;;;;;52.25;16.65;;;;;;;;;;4984861;28;20042;-73
2022/01/26 19:58:25;;;;;;;49.85;16.67;;;;;;;;;;5002486;28;20069;-73
2022/01/26 20:00:52;;;;;;;47.13;14.75;;;;;;;;;;5001377;28;20037;-73
2022/01/26 20:03:18;;;;;;;49.25;16.05;;;;;;;;;;5002396;28;20042;-73
2022/01/26 20:05:44;;;;;;;46.95;15.32;;;;;;;;;;4971040;28;20046;-73
2022/01/26 20:08:26;;;;;;;46.80;15.02;;;;;;;;;;4993942;28;20052;-73
2022/01/26 20:10:56;;;;;;;40.90;13.77;;;;;;;;;;4980664;28;20521;-73
2022/01/26 20:13:24;;;;;;;46.95;15.25;;;;;;;;;;4982838;28;20093;-73
2022/01/26 20:15:49;;;;;;;42.35;13.93;;;;;;;;;;4982137;28;20038;-73
2022/01/26 20:18:14;;;;;;;44.47;15.85;;;;;;;;;;4986674;28;20046;-73
2022/01/26 20:20:40;;;;;;;39.38;14.07;;;;;;;;;;4970854;28;20043;-73
2022/01/26 20:23:07;;;;;;;43.42;14.32;;;;;;;;;;4980933;28;20038;-73
2022/01/26 20:25:33;;;;;;;43.08;13.45;;;;;;;;;;4983039;28;20038;-73
2022/01/26 20:28:05;;;;;;;46.50;14.40;;;;;;;;;;4984800;28;20034;-73
2022/01/26 20:30:33;;;;;;;41.75;14.32;;;;;;;;;;4984941;28;20026;-73
2022/01/26 20:32:58;;;;;;;41.60;13.43;;;;;;;;;;4983552;28;20066;-73
2022/01/26 20:35:23;;;;;;;41.15;13.45;;;;;;;;;;4984849;28;20514;-73
2022/01/26 20:37:48;;;;;;;36.70;13.13;;;;;;;;;;4983083;28;20066;-73
2022/01/26 20:40:15;;;;;;;44.42;14.93;;;;;;;;;;4984112;28;20038;-73
2022/01/26 20:42:40;;;;;;;37.63;13.20;;;;;;;;;;4985061;28;20019;-73
2022/01/26 20:45:07;;;;;;;46.38;14.75;;;;;;;;;;4984037;28;20440;-73
2022/01/26 20:47:37;;;;;;;42.08;14.63;;;;;;;;;;5001011;28;20152;-74
2022/01/26 20:50:03;;;;;;;41.80;13.02;;;;;;;;;;4973593;28;20591;-69
2022/01/26 20:52:29;;;;;;;41.47;15.18;;;;;;;;;;4973422;28;20053;-71
2022/01/26 20:54:54;;;;;;;41.83;14.02;;;;;;;;;;4991371;28;20038;-73
2022/01/26 20:57:20;;;;;;;40.33;13.80;;;;;;;;;;4982459;28;20500;-74
2022/01/26 20:59:45;;;;;;;44.55;15.65;;;;;;;;;;4981920;28;20027;-72
2022/01/26 21:02:10;;;;;;;40.13;13.95;;;;;;;;;;4998603;28;20089;-72
2022/01/26 21:04:36;;;;;;;35.97;14.07;;;;;;;;;;4972877;28;20033;-70
2022/01/26 21:07:01;;;;;;;34.30;13.38;;;;;;;;;;4982875;28;20077;-72
2022/01/26 21:09:27;;;;;;;29.30;12.52;;;;;;;;;;4983140;28;20093;-74
2022/01/26 21:11:52;;;;;;;36.85;13.07;;;;;;;;;;4983022;28;20042;-71
2022/01/26 21:14:17;;;;;;;35.75;12.25;;;;;;;;;;4979994;28;20035;-72
2022/01/26 21:16:43;;;;;;;36.10;13.82;;;;;;;;;;4970728;28;20097;-71
2022/01/26 21:19:09;;;;;;;41.28;12.75;;;;;;;;;;4996689;28;20450;-71
2022/01/26 21:21:35;;;;;;;36.08;12.48;;;;;;;;;;4982833;28;20053;-71
2022/01/26 21:24:00;;;;;;;35.38;12.50;;;;;;;;;;4980851;28;20424;-74
2022/01/26 21:26:26;;;;;;;41.60;13.95;;;;;;;;;;4980464;28;20035;-73
2022/01/26 21:28:51;;;;;;;35.08;12.13;;;;;;;;;;4981222;28;20027;-70
2022/01/26 21:31:17;;;;;;;35.05;12.98;;;;;;;;;;4982345;28;20038;-71
2022/01/26 21:33:44;;;;;;;33.47;12.57;;;;;;;;;;4982976;28;20559;-74
2022/01/26 21:36:11;;;;;;;37.10;13.10;;;;;;;;;;4982619;28;20551;-71
2022/01/26 21:38:38;;;;;;;33.38;12.55;;;;;;;;;;4981943;28;20045;-72
2022/01/26 21:41:03;;;;;;;39.97;13.25;;;;;;;;;;4974127;28;20042;-70
2022/01/26 21:43:29;;;;;;;38.53;13.65;;;;;;;;;;4984119;28;20045;-74
2022/01/26 21:45:54;;;;;;;35.50;13.40;;;;;;;;;;4983290;28;20034;-75